BIARBIIS

Guest
Details From BIAR - Akureyri
To BIIS - Isafjordur
Flight Number -
Tags generated
Created
Modified
Stats Distance 127 nm / 235 km
Max Altitude 12,900 ft / 3,932 m
Waypoints 3
Social Downloads 1
Likes 0
Share VATSIM

Download

Looking for another format? Having issues loading an existing format? Contact us
Advertisement - Login to hide

Notes

Basic altitude profile: - Ascent Rate: 2500ft/min - Ascent Speed: 250kts - Cruise Altitude: 35000ft - Cruise Speed: 420kts - Descent Rate: 1500ft/min - Descent Speed: 250kts Options: - Use NATs: yes - Use PACOTS: yes - Use low airways: yes - Use high airways: yes

Route

BIAR HE BIIS

ID Type Via Altitude Latitude Longitude Leg Dist Tot Dist Heading (true) Name
O BIAR APT - 0 ft / 0 m 65.65657˚ -18.07197˚ - 0 nm - Akureyri
HE NDB - 12,900 ft / 3,932 m 65.75086˚ -19.51906˚ 36 nm 36 nm 280° / 278° HEGRANES NDB
O BIIS APT - 0 ft / 0 m 66.05810˚ -23.13520˚ 90 nm 126 nm 283° / 280° Isafjordur

Altitude Profile

Advertisement - Login to hide

BIAR

Details ICAO BIAR (AEY)
Name Akureyri
Region Iceland
Timezone Unknown (UTC+0.0)
Stats Elevation 5 ft / 2 m (AMSL)
Location 65.656574° -18.071975°
Runways 1
Magnetic Variation 12.292° W

METAR

BIAR 181400Z VRB04KT 9999 -RA FEW040 BKN065 07/02 Q0992 R01/D

Decode

TAF

TAF BIAR 181354Z 1815/1915 18025G35KT 9999 FEW030 OVC050 TX09/1818Z TN02/1915Z TEMPO 1815/1824 RA BKN025 OVC035 BECMG 1905/1908 22025G40KT

Decode

Departure Runways

ID Width Length Bearing (true) Bearing (mag) Surface Threshold Offset Overrun Length
01 148 ft / 45 m 7,855 ft / 2,394 m 355.54° 7.83° Asphalt 0 ft / 0 m 0 ft / 0 m
19 148 ft / 45 m 7,855 ft / 2,394 m 175.54° 187.83° Asphalt 0 ft / 0 m 0 ft / 0 m

BIIS

Details ICAO BIIS (IFJ)
Name Isafjordur
Region Iceland
Timezone Unknown (UTC+0.0)
Stats Elevation 7 ft / 2 m (AMSL)
Location 66.058100° -23.135201°
Runways 1
Magnetic Variation 15.277° W

METAR

BIIS 181400Z 19008KT 130V240 9999 SCT025 BKN035 06/00 Q0987 RMK ARNARNES 180 19-25KT

Decode

TAF

Not found

Destination Runways

ID Width Length Bearing (true) Bearing (mag) Surface Threshold Offset Overrun Length
08 139 ft / 42 m 4,598 ft / 1,401 m 61.84° 77.12° Asphalt 0 ft / 0 m 0 ft / 0 m
26 139 ft / 42 m 4,598 ft / 1,401 m 241.86° 257.14° Asphalt 0 ft / 0 m 0 ft / 0 m

Approach Navaids

Runway Type Ident Frequency Range Bearing (true) Bearing (mag) Slope Elevation
26 Localiser IOG 110.10 MHz 18 nm / 33 km 312.00° 327.28° - 8 ft / 2 m (AMSL)

Popular Alternatives